Samoth, Illinois
Current Conditions -  °F | °C
As of 2:35 PM on Tuesday 21 Oct 2014 (Local Time) from KM30 Reporting Station
Clear Clear  
Wind Chill: 70°   Ceiling: Unl
Heat Index: 70°   Visibility: 10mi
Dew Point: 45°   Wind: 12mph
Humidity: 41%   Direction: 340°NNW
Pressure: 30.06"   Gusts: NA
Location:  37.3798°N, 88.7652°W
Report Text: KM30 211935Z AUTO 34010KT 10SM CLR 21/07 A3006 RMK AO2 T02120074
Loading
Personal Weather Stations






























Interactive Weather Map
Tropical Storm Tracking
New forecast layout! Learn more

10-Day Weather Forecast

Advertisements
Track Severe Weather on mobile